Time;durP1;ratioP1;P1;durP2;ratioP2;P2;SDS_P1;SDS_P2;PMS_P1;PMS_P2;Temp;Humidity;BMP_temperature;BMP_pressure;BME280_temperature;BME280_humidity;BME280_pressure;Samples;Min_cycle;Max_cycle;Signal;HPM_P1;HPM_P2
2022/08/29 00:01:49;;;;;;;4.50;1.58;;;21.20;81.10;;;;;;5033435;28;20392;-77
2022/08/29 00:04:14;;;;;;;12.10;2.10;;;21.20;81.30;;;;;;5043578;28;20042;-77
2022/08/29 00:06:40;;;;;;;5.40;1.70;;;21.20;81.50;;;;;;5032031;28;20033;-77
2022/08/29 00:09:06;;;;;;;8.50;1.80;;;21.20;81.70;;;;;;5032651;28;20385;-76
2022/08/29 00:11:31;;;;;;;10.27;1.67;;;21.20;81.90;;;;;;5031305;28;20132;-77
2022/08/29 00:13:58;;;;;;;4.28;1.42;;;21.20;81.90;;;;;;5031797;28;20040;-77
2022/08/29 00:16:23;;;;;;;4.70;1.88;;;21.20;82.00;;;;;;5033889;28;20059;-76
2022/08/29 00:18:49;;;;;;;9.07;1.85;;;21.20;82.20;;;;;;5031730;28;20114;-76
2022/08/29 00:21:15;;;;;;;5.18;1.70;;;21.20;82.40;;;;;;5045039;28;20041;-77
2022/08/29 00:23:43;;;;;;;6.07;1.80;;;21.20;82.40;;;;;;5032171;28;20030;-76
2022/08/29 00:26:09;;;;;;;8.68;1.73;;;21.10;82.40;;;;;;5044484;28;20025;-77
2022/08/29 00:28:34;;;;;;;4.93;1.63;;;21.10;82.60;;;;;;5050697;28;20036;-77
2022/08/29 00:31:00;;;;;;;5.50;1.98;;;21.10;82.60;;;;;;5036166;28;20029;-77
2022/08/29 00:33:26;;;;;;;7.80;1.92;;;21.10;82.80;;;;;;5038689;28;20067;-77
2022/08/29 00:35:52;;;;;;;6.10;2.47;;;21.10;82.80;;;;;;5037385;28;20469;-77
2022/08/29 00:38:18;;;;;;;4.82;1.95;;;21.10;82.90;;;;;;5032375;28;20029;-77
2022/08/29 00:40:47;;;;;;;8.73;2.03;;;21.10;83.00;;;;;;5032029;28;20485;-77
2022/08/29 00:43:15;;;;;;;6.22;2.00;;;21.10;83.30;;;;;;5043929;28;20099;-77
2022/08/29 00:46:19;;;;;;;7.25;1.90;;;21.00;83.30;;;;;;5031494;28;20037;-76
2022/08/29 00:48:52;;;;;;;6.40;1.70;;;21.00;83.50;;;;;;5028771;28;20040;-76
2022/08/29 00:51:19;;;;;;;6.35;1.65;;;21.10;83.50;;;;;;5026131;28;20056;-77
2022/08/29 00:53:49;;;;;;;7.80;2.25;;;21.10;83.60;;;;;;5033481;28;20052;-77
2022/08/29 00:56:16;;;;;;;17.05;2.95;;;21.10;84.40;;;;;;5031210;28;20052;-77
2022/08/29 00:58:48;;;;;;;8.73;1.73;;;21.10;83.90;;;;;;5032862;28;20037;-77
2022/08/29 01:01:15;;;;;;;11.53;3.53;;;21.10;84.10;;;;;;5044292;28;20036;-77
2022/08/29 01:03:41;;;;;;;12.48;2.10;;;21.00;84.00;;;;;;5031168;28;20021;-77
2022/08/29 01:06:08;;;;;;;9.98;2.05;;;21.00;84.40;;;;;;5032610;28;20029;-77
2022/08/29 01:08:34;;;;;;;8.57;1.70;;;21.10;84.70;;;;;;5034485;28;20803;-77
2022/08/29 01:13:48;;;;;;;7.15;1.65;;;21.10;85.10;;;;;;5035587;28;20069;-77
2022/08/29 01:16:15;;;;;;;4.85;1.42;;;21.10;85.10;;;;;;5027466;28;20108;-77
2022/08/29 01:18:46;;;;;;;8.35;1.67;;;21.00;85.20;;;;;;5035559;28;20030;-77
2022/08/29 01:21:37;;;;;;;8.13;1.75;;;21.00;85.30;;;;;;5030973;28;20040;-77
2022/08/29 01:24:14;;;;;;;6.22;1.95;;;21.10;85.50;;;;;;5036248;28;20427;-77
2022/08/29 01:26:43;;;;;;;12.75;1.83;;;21.00;85.50;;;;;;5031902;28;20029;-77
2022/08/29 01:29:09;;;;;;;9.88;1.80;;;21.00;85.50;;;;;;5031309;28;20042;-78
2022/08/29 01:31:44;;;;;;;8.70;1.80;;;21.10;85.70;;;;;;5044237;28;20026;-77
2022/08/29 01:34:11;;;;;;;9.35;2.05;;;21.10;85.90;;;;;;5035097;28;20042;-77
2022/08/29 01:37:06;;;;;;;8.00;1.70;;;21.00;85.80;;;;;;5035140;28;20095;-77
2022/08/29 01:39:39;;;;;;;3.08;1.42;;;21.00;85.90;;;;;;5035084;28;20037;-77
2022/08/29 01:42:17;;;;;;;10.15;2.10;;;21.00;85.90;;;;;;5042521;28;20061;-77
2022/08/29 01:44:57;;;;;;;9.80;2.10;;;21.00;85.90;;;;;;5043977;28;20033;-77
2022/08/29 01:47:27;;;;;;;7.65;1.63;;;21.10;86.00;;;;;;5050482;28;20055;-77
2022/08/29 01:49:53;;;;;;;4.75;1.65;;;21.00;86.20;;;;;;5050286;28;20033;-77
2022/08/29 01:52:19;;;;;;;3.05;1.40;;;21.00;86.30;;;;;;5052305;28;20032;-77
2022/08/29 01:54:45;;;;;;;10.65;2.75;;;21.00;86.40;;;;;;5047571;28;20108;-77
2022/08/29 01:57:12;;;;;;;5.38;1.63;;;21.00;86.40;;;;;;5048259;28;20128;-77
2022/08/29 01:59:39;;;;;;;6.50;2.28;;;21.00;86.40;;;;;;5049973;28;20087;-78
2022/08/29 02:02:09;;;;;;;7.68;1.80;;;21.00;86.40;;;;;;5052358;28;20033;-77
2022/08/29 02:04:35;;;;;;;7.72;1.95;;;21.00;86.60;;;;;;5049032;28;20025;-77
2022/08/29 02:07:02;;;;;;;7.30;1.73;;;21.00;86.60;;;;;;5051442;28;20115;-77
2022/08/29 02:09:28;;;;;;;10.32;1.77;;;20.90;86.60;;;;;;5052691;28;20037;-77
2022/08/29 02:11:56;;;;;;;9.60;1.88;;;21.00;86.70;;;;;;5049353;28;20094;-78
2022/08/29 02:14:22;;;;;;;5.93;1.98;;;21.00;86.80;;;;;;5047554;28;20128;-77
2022/08/29 02:16:48;;;;;;;9.30;1.77;;;20.90;86.70;;;;;;5052368;28;20068;-77
2022/08/29 02:19:14;;;;;;;9.52;1.98;;;21.00;86.80;;;;;;5048416;28;20432;-77
2022/08/29 02:21:40;;;;;;;10.43;2.03;;;20.90;86.90;;;;;;5053551;28;20025;-77
2022/08/29 02:24:05;;;;;;;8.57;1.77;;;21.00;87.40;;;;;;5051600;28;20082;-78
2022/08/29 02:26:31;;;;;;;5.63;1.70;;;21.00;87.10;;;;;;5051726;28;20500;-78
2022/08/29 02:28:57;;;;;;;7.70;2.85;;;20.90;87.00;;;;;;5048361;28;20025;-78
2022/08/29 02:31:23;;;;;;;10.32;1.80;;;20.90;87.10;;;;;;5054243;28;20033;-78
2022/08/29 02:33:51;;;;;;;8.18;1.70;;;20.90;87.10;;;;;;5051422;28;20056;-78
2022/08/29 02:36:17;;;;;;;6.82;1.60;;;20.90;87.20;;;;;;5054363;28;20114;-78
2022/08/29 02:38:43;;;;;;;6.57;1.85;;;20.90;87.20;;;;;;5047084;28;20025;-78
2022/08/29 02:41:09;;;;;;;9.65;2.28;;;20.90;87.30;;;;;;5046959;28;20031;-78
2022/08/29 02:43:35;;;;;;;13.20;2.25;;;20.80;87.30;;;;;;5040395;28;20389;-78
2022/08/29 02:46:01;;;;;;;7.53;1.92;;;20.90;87.40;;;;;;5025214;28;20036;-78
2022/08/29 02:48:27;;;;;;;8.15;1.58;;;20.90;87.50;;;;;;5034009;28;20091;-78
2022/08/29 02:50:55;;;;;;;11.10;1.90;;;20.80;88.20;;;;;;5034333;28;20469;-78
2022/08/29 02:53:25;;;;;;;5.70;1.70;;;20.90;87.60;;;;;;5032309;28;20045;-78
2022/08/29 02:55:52;;;;;;;8.50;2.35;;;20.80;87.60;;;;;;5034810;28;20465;-78
2022/08/29 02:58:19;;;;;;;4.75;2.08;;;20.80;87.70;;;;;;5035656;28;20083;-77
2022/08/29 03:00:45;;;;;;;6.07;1.70;;;20.80;87.80;;;;;;5035135;28;20420;-78
2022/08/29 03:03:11;;;;;;;11.10;1.70;;;20.80;87.90;;;;;;5036262;28;20026;-78
2022/08/29 03:05:37;;;;;;;10.15;2.08;;;20.80;87.90;;;;;;5035144;28;20453;-77
2022/08/29 03:08:06;;;;;;;9.75;2.10;;;20.80;87.90;;;;;;5023066;28;20071;-78
2022/08/29 03:10:33;;;;;;;4.78;1.80;;;20.80;87.90;;;;;;5037740;28;20220;-78
2022/08/29 03:12:58;;;;;;;4.28;1.85;;;20.80;87.80;;;;;;5035712;28;20037;-78
2022/08/29 03:15:25;;;;;;;5.82;1.92;;;20.80;87.70;;;;;;5035244;28;20025;-78
2022/08/29 03:17:51;;;;;;;5.30;1.80;;;20.80;87.80;;;;;;5035018;28;20537;-78
2022/08/29 03:20:19;;;;;;;5.38;1.88;;;20.80;87.80;;;;;;5033093;28;20108;-77
2022/08/29 03:22:45;;;;;;;4.70;2.00;;;20.80;87.90;;;;;;5033322;28;20041;-78
2022/08/29 03:25:12;;;;;;;7.15;2.20;;;20.80;87.90;;;;;;5032689;28;20022;-78
2022/08/29 03:27:38;;;;;;;10.63;2.22;;;20.80;88.10;;;;;;5033124;28;20465;-78
2022/08/29 03:30:05;;;;;;;14.70;2.00;;;20.70;88.20;;;;;;5031860;28;20490;-78
2022/08/29 03:32:31;;;;;;;6.22;1.80;;;20.70;88.20;;;;;;5033453;28;20029;-78
2022/08/29 03:34:57;;;;;;;9.88;2.15;;;20.70;88.30;;;;;;5032496;28;20116;-78
2022/08/29 03:37:22;;;;;;;9.18;2.08;;;20.70;88.40;;;;;;5033142;28;20036;-78
2022/08/29 03:39:48;;;;;;;9.30;2.05;;;20.70;88.50;;;;;;5043465;28;20032;-78
2022/08/29 03:42:14;;;;;;;7.07;1.80;;;20.70;88.50;;;;;;5028660;28;20029;-78
2022/08/29 03:44:41;;;;;;;8.57;1.88;;;20.80;88.70;;;;;;5026070;28;20033;-78
2022/08/29 03:47:07;;;;;;;10.43;2.55;;;20.70;88.80;;;;;;5052202;28;20037;-79
2022/08/29 03:49:33;;;;;;;8.98;2.20;;;20.70;88.90;;;;;;5048193;28;20021;-78
2022/08/29 03:51:59;;;;;;;6.55;1.83;;;20.70;89.00;;;;;;5032780;28;20485;-78
2022/08/29 03:54:26;;;;;;;8.85;2.67;;;20.70;89.10;;;;;;5045422;28;20403;-78
2022/08/29 03:56:52;;;;;;;10.93;2.60;;;20.70;89.20;;;;;;5031508;28;20029;-78
2022/08/29 03:59:18;;;;;;;5.97;1.83;;;20.70;89.30;;;;;;5044527;28;20040;-78
2022/08/29 04:01:46;;;;;;;8.43;2.25;;;20.60;89.40;;;;;;5047971;28;20017;-78
2022/08/29 04:05:05;;;;;;;4.72;1.88;;;20.70;89.60;;;;;;5039342;28;20103;-78
2022/08/29 04:07:00;;;;;;;8.93;2.08;;;20.70;89.70;;;;;;5039922;28;20025;-78
2022/08/29 04:09:26;;;;;;;5.88;1.88;;;20.70;89.60;;;;;;5047831;28;20045;-79
2022/08/29 04:11:52;;;;;;;5.93;2.10;;;20.70;89.70;;;;;;5042279;28;20025;-78
2022/08/29 04:14:19;;;;;;;7.47;1.83;;;20.70;89.70;;;;;;5033140;28;20040;-78
2022/08/29 04:16:48;;;;;;;9.13;2.00;;;20.70;89.80;;;;;;5049787;28;20033;-78
2022/08/29 04:19:18;;;;;;;13.52;2.00;;;20.70;89.90;;;;;;5038410;28;20401;-78
2022/08/29 04:21:44;;;;;;;9.15;2.15;;;20.70;89.90;;;;;;5052494;28;20024;-78
2022/08/29 04:24:11;;;;;;;10.25;2.22;;;20.70;90.00;;;;;;5045369;28;20572;-78
2022/08/29 04:26:38;;;;;;;8.25;2.10;;;20.70;90.00;;;;;;5032069;28;20033;-78
2022/08/29 04:29:06;;;;;;;5.47;1.92;;;20.80;90.00;;;;;;5032056;28;20039;-78
2022/08/29 04:31:32;;;;;;;8.77;2.08;;;20.70;90.00;;;;;;5044000;28;20075;-78
2022/08/29 04:33:58;;;;;;;9.52;2.60;;;20.70;90.00;;;;;;5032482;28;20072;-78
2022/08/29 04:36:24;;;;;;;13.93;1.85;;;20.70;90.00;;;;;;5031436;28;20033;-78
2022/08/29 04:38:49;;;;;;;12.70;2.30;;;20.70;90.10;;;;;;5031646;28;20500;-78
2022/08/29 04:41:15;;;;;;;8.02;2.28;;;20.70;90.10;;;;;;5031796;28;20061;-78
2022/08/29 04:43:44;;;;;;;11.15;2.22;;;20.70;90.10;;;;;;5033192;28;20025;-76
2022/08/29 04:46:10;;;;;;;10.25;2.50;;;20.70;90.20;;;;;;5032528;28;20091;-77
2022/08/29 04:48:36;;;;;;;5.22;2.00;;;20.60;90.20;;;;;;5033149;28;20465;-78
2022/08/29 04:51:01;;;;;;;4.35;2.15;;;20.70;90.30;;;;;;5034061;28;20036;-78
2022/08/29 04:53:28;;;;;;;8.02;1.95;;;20.70;90.30;;;;;;5033081;28;20045;-76
2022/08/29 04:56:05;;;;;;;7.65;2.22;;;20.60;90.30;;;;;;5034639;28;20527;-78
2022/08/29 04:58:33;;;;;;;9.27;3.15;;;20.70;90.40;;;;;;5031271;28;20525;-78
2022/08/29 05:00:59;;;;;;;5.85;2.03;;;20.70;90.40;;;;;;5040080;28;20036;-78
2022/08/29 05:03:25;;;;;;;7.10;1.92;;;20.70;90.40;;;;;;5042774;28;20033;-81
2022/08/29 05:06:01;;;;;;;4.72;2.20;;;20.60;90.30;;;;;;5045333;28;20036;-79
2022/08/29 05:08:28;;;;;;;9.32;2.60;;;20.70;90.30;;;;;;5032328;28;20040;-76
2022/08/29 05:10:54;;;;;;;10.00;2.13;;;20.70;90.40;;;;;;5043228;28;20508;-79
2022/08/29 05:13:21;;;;;;;12.43;2.17;;;20.70;90.40;;;;;;5048146;28;20036;-79
2022/08/29 05:15:48;;;;;;;9.20;2.22;;;20.70;90.50;;;;;;5045770;28;20026;-78
2022/08/29 05:18:16;;;;;;;7.85;2.10;;;20.70;90.50;;;;;;5043720;28;20037;-79
2022/08/29 05:20:44;;;;;;;28.48;2.85;;;20.70;90.60;;;;;;5037868;28;20443;-78
2022/08/29 05:23:10;;;;;;;15.68;2.78;;;20.70;90.60;;;;;;5055401;28;20095;-78
2022/08/29 05:25:35;;;;;;;13.07;2.80;;;20.70;90.50;;;;;;5038275;28;20468;-79
2022/08/29 05:28:02;;;;;;;19.35;2.72;;;20.70;90.60;;;;;;5036363;28;20074;-79
2022/08/29 05:30:28;;;;;;;19.65;3.58;;;20.70;90.60;;;;;;5035991;28;20022;-79
2022/08/29 05:32:53;;;;;;;15.13;2.60;;;20.70;90.70;;;;;;5034615;28;20045;-80
2022/08/29 05:35:19;;;;;;;5.55;2.10;;;20.70;90.60;;;;;;5034820;28;20033;-81
2022/08/29 05:37:46;;;;;;;14.13;2.75;;;20.70;90.60;;;;;;5035534;28;20068;-80
2022/08/29 05:40:11;;;;;;;9.07;2.13;;;20.70;90.50;;;;;;5035066;28;20120;-78
2022/08/29 05:42:38;;;;;;;11.52;2.30;;;20.70;90.50;;;;;;5035144;28;20108;-78
2022/08/29 05:45:05;;;;;;;10.50;2.80;;;20.70;90.30;;;;;;5035095;28;20060;-78
2022/08/29 05:47:31;;;;;;;12.15;2.75;;;20.70;90.40;;;;;;5035454;28;20058;-78
2022/08/29 05:49:57;;;;;;;10.70;2.22;;;20.70;90.30;;;;;;5036117;28;20033;-79
2022/08/29 05:52:23;;;;;;;15.35;2.80;;;20.70;90.30;;;;;;5041601;28;20036;-77
2022/08/29 05:54:49;;;;;;;13.98;2.80;;;20.80;90.50;;;;;;5052262;28;20079;-75
2022/08/29 05:57:19;;;;;;;16.10;4.28;;;20.80;90.50;;;;;;5046527;28;20443;-79
2022/08/29 05:59:46;;;;;;;13.93;2.75;;;20.80;90.50;;;;;;5044843;28;20535;-79
2022/08/29 06:02:12;;;;;;;13.25;3.20;;;20.80;90.40;;;;;;5043798;28;20042;-79
2022/08/29 06:04:38;;;;;;;9.73;2.60;;;20.80;90.30;;;;;;5046488;28;20079;-79
2022/08/29 06:07:05;;;;;;;20.25;3.38;;;20.80;90.40;;;;;;5044935;28;20489;-76
2022/08/29 06:09:31;;;;;;;12.70;2.60;;;20.90;90.30;;;;;;5050299;28;20044;-79
2022/08/29 06:11:57;;;;;;;14.55;2.85;;;20.80;90.30;;;;;;5048043;28;20025;-79
2022/08/29 06:14:24;;;;;;;16.85;3.17;;;20.80;90.20;;;;;;5052156;28;20033;-77
2022/08/29 06:16:50;;;;;;;14.02;2.78;;;20.90;90.30;;;;;;5051839;28;20041;-79
2022/08/29 06:19:16;;;;;;;12.80;2.75;;;20.90;90.20;;;;;;5048120;28;20040;-78
2022/08/29 06:21:41;;;;;;;10.70;2.50;;;20.90;90.30;;;;;;5051844;28;20396;-78
2022/08/29 06:24:07;;;;;;;18.63;3.00;;;20.90;90.20;;;;;;5045770;28;20043;-79
2022/08/29 06:26:34;;;;;;;11.45;2.30;;;20.90;90.30;;;;;;5046734;28;20112;-78
2022/08/29 06:29:03;;;;;;;10.90;2.42;;;20.90;90.70;;;;;;5044024;28;20044;-77
2022/08/29 06:31:28;;;;;;;9.18;2.17;;;20.90;90.40;;;;;;5049515;28;20029;-79
2022/08/29 06:33:57;;;;;;;15.95;3.00;;;20.90;90.40;;;;;;5045480;28;20087;-79
2022/08/29 06:36:27;;;;;;;18.50;2.70;;;21.00;90.50;;;;;;5046290;28;20533;-79
2022/08/29 06:38:57;;;;;;;12.32;2.63;;;20.90;90.40;;;;;;5049102;28;20116;-79
2022/08/29 06:41:24;;;;;;;13.93;3.70;;;21.00;90.40;;;;;;5039837;28;20038;-80
2022/08/29 06:43:50;;;;;;;12.15;2.40;;;21.00;90.30;;;;;;5044128;28;20039;-79
2022/08/29 06:46:37;;;;;;;14.05;3.03;;;21.00;90.30;;;;;;5048523;28;20400;-81
2022/08/29 06:49:06;;;;;;;8.85;2.70;;;21.00;90.20;;;;;;5048652;28;20115;-78
2022/08/29 06:51:34;;;;;;;14.85;2.90;;;21.00;90.20;;;;;;5048175;28;20025;-78
2022/08/29 06:54:05;;;;;;;13.98;3.78;;;21.00;90.20;;;;;;5048246;28;20488;-78
2022/08/29 06:56:31;;;;;;;15.15;2.65;;;21.00;90.20;;;;;;5045284;28;20078;-78
2022/08/29 06:58:58;;;;;;;13.73;2.85;;;21.00;90.20;;;;;;5044723;28;20043;-79
2022/08/29 07:01:24;;;;;;;15.48;2.70;;;21.00;90.30;;;;;;5045668;28;20128;-80
2022/08/29 07:03:53;;;;;;;13.52;3.03;;;21.10;90.30;;;;;;5047516;28;20087;-79
2022/08/29 07:06:19;;;;;;;11.95;2.80;;;21.10;90.40;;;;;;5046448;28;20026;-79
2022/08/29 07:08:45;;;;;;;13.30;2.67;;;21.10;90.40;;;;;;5042974;28;20025;-79
2022/08/29 07:11:11;;;;;;;9.70;2.50;;;21.10;90.40;;;;;;5047302;28;20045;-77
2022/08/29 07:13:38;;;;;;;12.75;3.05;;;21.10;90.40;;;;;;5044100;28;20044;-80
2022/08/29 07:16:08;;;;;;;11.00;2.90;;;21.20;90.50;;;;;;5046285;28;20042;-80
2022/08/29 07:18:34;;;;;;;13.27;3.33;;;21.20;90.50;;;;;;5047539;28;20040;-79
2022/08/29 07:21:04;;;;;;;16.25;2.72;;;21.20;90.50;;;;;;5044464;28;20137;-81
2022/08/29 07:23:30;;;;;;;13.82;3.20;;;21.20;90.50;;;;;;5046228;28;20329;-81
2022/08/29 07:26:06;;;;;;;13.25;2.95;;;21.30;90.30;;;;;;5043240;28;20082;-80
2022/08/29 07:28:33;;;;;;;9.98;2.85;;;21.30;90.30;;;;;;5045393;28;20033;-80
2022/08/29 07:30:59;;;;;;;13.93;2.88;;;21.30;90.10;;;;;;5042192;28;20040;-81
2022/08/29 07:33:25;;;;;;;9.70;2.40;;;21.30;90.00;;;;;;5046236;28;20045;-82
2022/08/29 07:35:53;;;;;;;14.65;2.78;;;21.30;90.00;;;;;;5044835;28;20071;-80
2022/08/29 07:38:19;;;;;;;17.15;3.20;;;21.30;90.10;;;;;;5040221;28;20546;-79
2022/08/29 07:40:45;;;;;;;8.38;2.40;;;21.30;90.10;;;;;;5048836;28;20040;-76
2022/08/29 07:43:11;;;;;;;13.02;2.88;;;21.30;90.20;;;;;;5043390;28;20025;-79
2022/08/29 07:45:38;;;;;;;13.45;3.22;;;21.30;90.20;;;;;;5047770;28;20021;-84
2022/08/29 07:48:04;;;;;;;12.45;2.88;;;21.30;90.30;;;;;;5047370;28;20032;-85
2022/08/29 07:50:30;;;;;;;10.57;2.78;;;21.30;90.30;;;;;;5048063;28;20017;-83
2022/08/29 07:52:55;;;;;;;17.10;3.28;;;21.30;90.40;;;;;;5046498;28;20488;-83
2022/08/29 07:55:21;;;;;;;8.40;2.88;;;21.30;90.40;;;;;;5046304;28;20472;-84
2022/08/29 07:57:50;;;;;;;9.48;2.55;;;21.30;90.30;;;;;;5046636;28;20108;-82
2022/08/29 08:00:16;;;;;;;15.20;2.42;;;21.30;90.40;;;;;;5039360;28;20025;-84
2022/08/29 08:02:42;;;;;;;11.40;2.60;;;21.30;90.40;;;;;;5045021;28;20288;-83
2022/08/29 08:05:08;;;;;;;10.82;2.63;;;21.30;90.50;;;;;;5041765;28;20025;-79
2022/08/29 08:07:34;;;;;;;12.40;2.85;;;21.30;90.50;;;;;;5046555;28;20029;-78
2022/08/29 08:10:00;;;;;;;10.15;3.22;;;21.30;90.60;;;;;;5041827;28;20049;-78
2022/08/29 08:12:26;;;;;;;13.25;3.92;;;21.30;90.70;;;;;;5046727;28;20067;-78
2022/08/29 08:14:52;;;;;;;10.75;2.85;;;21.30;90.80;;;;;;5046219;28;20476;-80
2022/08/29 08:17:18;;;;;;;8.45;2.88;;;21.30;90.80;;;;;;5042962;28;20376;-77
2022/08/29 08:19:43;;;;;;;10.32;2.92;;;21.30;90.80;;;;;;5045778;28;20029;-81
2022/08/29 08:22:09;;;;;;;11.93;3.90;;;21.30;90.80;;;;;;5043143;28;20032;-72
2022/08/29 08:24:35;;;;;;;18.38;3.83;;;21.30;91.00;;;;;;5043658;28;20805;-76
2022/08/29 08:27:00;;;;;;;12.90;3.78;;;21.30;91.40;;;;;;5040923;28;20025;-75
2022/08/29 08:29:26;;;;;;;13.45;3.17;;;21.30;91.40;;;;;;5045609;28;20029;-76
2022/08/29 08:31:54;;;;;;;18.23;3.72;;;21.30;91.60;;;;;;5044034;28;20051;-76
2022/08/29 08:34:20;;;;;;;18.75;3.72;;;21.30;91.70;;;;;;5048543;28;20036;-76
2022/08/29 08:36:46;;;;;;;10.85;3.50;;;21.30;91.70;;;;;;5045834;28;20029;-76
2022/08/29 08:39:13;;;;;;;12.55;3.28;;;21.30;91.90;;;;;;5047539;28;20031;-76
2022/08/29 08:42:00;;;;;;;12.88;3.70;;;21.40;91.90;;;;;;5045416;28;20025;-77
2022/08/29 08:44:44;;;;;;;10.93;3.33;;;21.30;92.40;;;;;;5045796;28;20021;-77
2022/08/29 08:47:14;;;;;;;12.73;3.20;;;21.40;92.20;;;;;;5050093;28;20118;-77
2022/08/29 08:49:46;;;;;;;12.57;3.40;;;21.40;92.20;;;;;;5042928;28;20167;-77
2022/08/29 08:52:33;;;;;;;8.65;2.63;;;21.40;92.20;;;;;;5043138;28;20030;-77
2022/08/29 08:55:09;;;;;;;11.45;3.67;;;21.40;92.10;;;;;;5031653;28;20033;-78
2022/08/29 08:57:51;;;;;;;12.05;3.25;;;21.40;92.10;;;;;;5041669;28;20021;-78
2022/08/29 09:00:17;;;;;;;16.27;3.10;;;21.50;92.20;;;;;;5046771;28;20508;-78
2022/08/29 09:02:46;;;;;;;18.67;3.10;;;21.50;92.10;;;;;;5047215;28;20033;-77
2022/08/29 09:05:21;;;;;;;16.00;2.95;;;21.50;92.10;;;;;;5032393;28;20036;-77
2022/08/29 09:08:17;;;;;;;14.15;3.55;;;21.50;92.10;;;;;;5041743;28;20056;-73
2022/08/29 09:10:58;;;;;;;13.45;3.20;;;21.50;92.10;;;;;;5050790;28;20053;-77
2022/08/29 09:13:45;;;;;;;14.05;3.15;;;21.50;92.30;;;;;;5048109;28;20139;-78
2022/08/29 09:16:29;;;;;;;14.13;2.85;;;21.60;92.20;;;;;;5042930;28;20350;-80
2022/08/29 09:19:00;;;;;;;11.43;3.03;;;21.60;92.30;;;;;;5038786;28;20086;-79
2022/08/29 09:21:27;;;;;;;17.60;2.90;;;21.50;92.30;;;;;;5047779;28;20091;-80
2022/08/29 09:23:56;;;;;;;11.68;3.75;;;21.60;92.20;;;;;;5045308;28;20029;-80
2022/08/29 09:26:23;;;;;;;16.88;3.03;;;21.60;92.20;;;;;;5047503;28;20054;-79
2022/08/29 09:28:49;;;;;;;12.18;2.33;;;21.60;92.20;;;;;;5043709;28;20076;-75
2022/08/29 09:31:23;;;;;;;12.52;2.90;;;21.60;92.20;;;;;;5042434;28;20061;-79
2022/08/29 09:33:56;;;;;;;10.45;2.63;;;21.60;92.20;;;;;;5025285;28;20063;-76
2022/08/29 09:36:44;;;;;;;15.57;3.53;;;21.70;92.20;;;;;;5037155;28;20468;-81
2022/08/29 09:39:14;;;;;;;14.88;3.55;;;21.70;92.40;;;;;;5035381;28;20040;-82
2022/08/29 09:41:40;;;;;;;11.32;2.97;;;21.70;92.50;;;;;;5039938;28;20109;-83
2022/08/29 09:44:11;;;;;;;14.70;2.70;;;21.70;92.90;;;;;;5034434;28;20468;-78
2022/08/29 09:46:37;;;;;;;17.70;4.28;;;21.70;92.30;;;;;;5043426;28;20029;-79
2022/08/29 09:49:02;;;;;;;14.25;2.72;;;21.70;92.10;;;;;;5044501;28;20021;-80
2022/08/29 09:51:31;;;;;;;8.25;2.10;;;21.70;92.00;;;;;;5040807;28;20381;-78
2022/08/29 09:54:11;;;;;;;10.05;2.13;;;21.70;91.90;;;;;;5034783;28;20033;-76
2022/08/29 09:56:47;;;;;;;7.95;2.75;;;21.80;91.90;;;;;;5048018;28;20056;-77
2022/08/29 09:59:26;;;;;;;9.20;2.85;;;21.80;91.90;;;;;;5047478;28;20045;-78
2022/08/29 10:02:18;;;;;;;8.43;1.92;;;21.80;91.80;;;;;;5046457;28;20127;-78
2022/08/29 10:04:47;;;;;;;17.95;3.33;;;21.80;91.70;;;;;;5046287;28;20033;-76
2022/08/29 10:07:18;;;;;;;8.13;2.58;;;21.90;91.70;;;;;;5050397;28;20025;-76
2022/08/29 10:10:18;;;;;;;7.43;2.50;;;21.90;91.60;;;;;;5044128;28;20503;-78
2022/08/29 10:13:16;;;;;;;11.30;2.83;;;21.90;91.50;;;;;;5044638;28;20057;-76
2022/08/29 10:16:07;;;;;;;13.30;2.67;;;21.90;91.50;;;;;;5045532;28;20029;-77
2022/08/29 10:18:51;;;;;;;11.25;2.20;;;22.00;91.30;;;;;;5045711;28;20036;-78
2022/08/29 10:21:28;;;;;;;12.98;2.50;;;22.00;91.30;;;;;;5049551;28;20029;-82
2022/08/29 10:24:18;;;;;;;8.30;2.70;;;22.00;91.20;;;;;;5041257;28;20025;-83
2022/08/29 10:27:01;;;;;;;8.75;2.42;;;22.00;91.30;;;;;;5037756;28;20033;-80
2022/08/29 10:29:46;;;;;;;17.23;2.95;;;22.10;91.30;;;;;;5029831;28;20021;-80
2022/08/29 10:32:15;;;;;;;9.45;2.30;;;22.10;91.20;;;;;;5045438;28;20136;-81
2022/08/29 10:34:59;;;;;;;10.35;2.00;;;22.10;91.20;;;;;;5049585;28;20087;-82
2022/08/29 10:37:47;;;;;;;7.78;2.03;;;22.10;91.20;;;;;;5038576;28;20033;-79
2022/08/29 10:40:21;;;;;;;16.27;2.45;;;22.10;91.20;;;;;;5045309;28;20040;-80
2022/08/29 10:42:49;;;;;;;6.93;2.13;;;22.10;91.10;;;;;;5046369;28;20392;-81
2022/08/29 10:45:38;;;;;;;9.00;2.45;;;22.10;91.20;;;;;;5032446;28;20033;-80
2022/08/29 10:48:20;;;;;;;4.88;2.10;;;22.10;91.20;;;;;;5046000;28;20159;-81
2022/08/29 10:51:06;;;;;;;10.35;1.85;;;22.10;91.20;;;;;;5045215;28;20025;-78
2022/08/29 10:53:42;;;;;;;7.65;2.35;;;22.10;91.20;;;;;;5028080;28;20048;-79
2022/08/29 10:56:29;;;;;;;12.25;2.60;;;22.10;91.10;;;;;;5049581;28;20103;-80
2022/08/29 10:59:23;;;;;;;8.45;2.08;;;22.10;91.10;;;;;;5046316;28;20020;-80
2022/08/29 11:01:56;;;;;;;5.97;1.50;;;22.20;91.10;;;;;;5049505;28;20037;-80
2022/08/29 11:04:31;;;;;;;9.68;1.98;;;22.20;91.10;;;;;;5049656;28;20387;-80
2022/08/29 11:07:11;;;;;;;6.28;1.75;;;22.20;91.00;;;;;;5042777;28;20124;-80
2022/08/29 11:09:41;;;;;;;6.80;1.90;;;22.20;91.10;;;;;;5038934;28;20457;-81
2022/08/29 11:12:20;;;;;;;8.80;2.20;;;22.20;91.00;;;;;;5036788;28;20033;-81
2022/08/29 11:15:03;;;;;;;7.13;2.33;;;22.30;90.90;;;;;;5023006;28;20044;-79
2022/08/29 11:17:34;;;;;;;8.63;2.28;;;22.30;91.00;;;;;;5026609;28;20440;-85
2022/08/29 11:20:10;;;;;;;7.15;2.10;;;22.30;90.90;;;;;;5039744;28;20033;-83
2022/08/29 11:22:58;;;;;;;3.33;1.83;;;22.30;90.80;;;;;;5040615;28;20057;-84
2022/08/29 11:25:23;;;;;;;3.80;1.63;;;22.40;90.70;;;;;;5044060;28;20087;-80
2022/08/29 11:28:08;;;;;;;7.30;2.03;;;22.40;90.80;;;;;;5048162;28;20036;-68
2022/08/29 11:30:59;;;;;;;7.57;2.15;;;22.40;90.70;;;;;;5051053;28;20435;-81
2022/08/29 11:33:45;;;;;;;7.03;2.08;;;22.50;90.70;;;;;;5049541;28;20045;-81
2022/08/29 11:36:28;;;;;;;9.38;2.35;;;22.50;90.60;;;;;;5050418;28;20028;-79
2022/08/29 11:39:05;;;;;;;4.60;1.63;;;22.50;90.50;;;;;;5047807;28;20024;-79
2022/08/29 11:41:37;;;;;;;10.25;1.70;;;22.50;90.60;;;;;;5038148;28;21075;-79
2022/08/29 11:44:42;;;;;;;6.20;1.88;;;22.60;90.50;;;;;;5047126;28;20041;-80
2022/08/29 11:47:45;;;;;;;8.57;2.15;;;22.60;90.50;;;;;;5027348;28;20036;-79
2022/08/29 11:50:13;;;;;;;7.88;2.13;;;22.60;90.30;;;;;;5050818;28;20075;-80
2022/08/29 11:52:51;;;;;;;13.15;1.92;;;22.70;90.40;;;;;;5050061;28;20040;-79
2022/08/29 11:55:26;;;;;;;4.05;1.67;;;22.80;90.30;;;;;;5038228;28;20025;-79
2022/08/29 11:57:55;;;;;;;6.07;1.77;;;22.80;90.20;;;;;;5035654;28;20496;-79
2022/08/29 12:00:31;;;;;;;5.35;1.58;;;22.90;90.10;;;;;;5036264;28;20037;-79
2022/08/29 12:02:57;;;;;;;10.02;2.10;;;22.90;90.20;;;;;;5032540;28;20033;-80
2022/08/29 12:05:28;;;;;;;4.15;1.58;;;22.90;90.10;;;;;;5032554;28;20113;-79
2022/08/29 12:08:00;;;;;;;15.30;2.55;;;22.90;90.10;;;;;;5032759;28;20033;-80
2022/08/29 12:10:31;;;;;;;3.45;1.17;;;22.90;90.00;;;;;;5035316;28;20056;-80
2022/08/29 12:13:01;;;;;;;5.95;1.73;;;23.00;90.00;;;;;;5034866;28;20049;-79
2022/08/29 12:15:34;;;;;;;8.85;3.00;;;23.00;89.90;;;;;;5040014;28;20025;-82
2022/08/29 12:18:11;;;;;;;9.30;1.70;;;23.00;89.90;;;;;;5039456;28;20432;-80
2022/08/29 12:20:47;;;;;;;6.25;1.80;;;23.10;89.90;;;;;;5041110;28;20036;-79
2022/08/29 12:23:13;;;;;;;6.25;1.90;;;23.10;89.70;;;;;;5037049;28;20072;-79
2022/08/29 12:25:44;;;;;;;10.82;2.63;;;23.10;89.60;;;;;;5040802;28;20049;-80
2022/08/29 12:28:30;;;;;;;7.30;1.65;;;23.20;89.90;;;;;;5047345;28;20043;-80
2022/08/29 12:30:58;;;;;;;4.55;1.40;;;23.20;89.60;;;;;;5038421;28;20100;-82
2022/08/29 12:33:45;;;;;;;4.22;1.40;;;23.30;89.60;;;;;;5049682;28;20119;-82
2022/08/29 12:36:46;;;;;;;5.38;1.90;;;23.30;89.30;;;;;;5046057;28;20171;-77
2022/08/29 12:39:58;;;;;;;9.60;1.90;;;23.30;89.10;;;;;;5035983;28;20041;-73
2022/08/29 12:42:46;;;;;;;6.00;1.90;;;23.40;89.30;;;;;;5051015;28;20431;-81
2022/08/29 12:45:25;;;;;;;3.80;1.25;;;23.40;89.30;;;;;;5049494;28;20028;-80
2022/08/29 12:47:56;;;;;;;8.55;1.90;;;23.40;89.20;;;;;;5046706;28;20025;-80
2022/08/29 12:50:33;;;;;;;15.15;2.08;;;23.40;88.90;;;;;;5046400;28;20024;-79
2022/08/29 12:53:14;;;;;;;9.85;1.70;;;23.40;89.00;;;;;;5048101;28;20041;-80
2022/08/29 12:55:43;;;;;;;6.55;1.23;;;23.50;88.90;;;;;;5048442;28;20017;-78
2022/08/29 12:58:12;;;;;;;6.68;1.67;;;23.50;89.00;;;;;;5044960;28;20396;-78
2022/08/29 13:00:38;;;;;;;6.18;1.80;;;23.60;88.90;;;;;;5048998;28;20021;-80
2022/08/29 13:03:11;;;;;;;7.68;1.83;;;23.50;88.70;;;;;;5046680;28;20122;-79
2022/08/29 13:05:39;;;;;;;5.50;1.38;;;23.60;88.80;;;;;;5045344;28;20032;-79